sensor_id;sensor_type;location;lat;lon;timestamp;temperature;humidity
34837;DHT22;21053;50.848;4.652;2023-07-24T00:00:42;18.90;99.90
34837;DHT22;21053;50.848;4.652;2023-07-24T00:03:11;19.00;99.90
34837;DHT22;21053;50.848;4.652;2023-07-24T00:05:40;19.00;99.90
34837;DHT22;21053;50.848;4.652;2023-07-24T00:08:08;19.00;99.90
34837;DHT22;21053;50.848;4.652;2023-07-24T00:10:37;19.00;99.90
34837;DHT22;21053;50.848;4.652;2023-07-24T00:13:07;19.00;99.90
34837;DHT22;21053;50.848;4.652;2023-07-24T00:15:34;19.20;99.90
34837;DHT22;21053;50.848;4.652;2023-07-24T00:18:02;19.30;99.90
34837;DHT22;21053;50.848;4.652;2023-07-24T00:20:28;19.30;99.90
34837;DHT22;21053;50.848;4.652;2023-07-24T00:22:56;19.30;99.90
34837;DHT22;21053;50.848;4.652;2023-07-24T00:25:25;19.30;99.90
34837;DHT22;21053;50.848;4.652;2023-07-24T00:27:53;19.30;99.90
34837;DHT22;21053;50.848;4.652;2023-07-24T00:30:22;19.20;99.90
34837;DHT22;21053;50.848;4.652;2023-07-24T00:32:50;19.20;99.90
34837;DHT22;21053;50.848;4.652;2023-07-24T00:35:25;19.30;99.90
34837;DHT22;21053;50.848;4.652;2023-07-24T00:37:54;19.30;99.90
34837;DHT22;21053;50.848;4.652;2023-07-24T00:40:22;19.30;99.90
34837;DHT22;21053;50.848;4.652;2023-07-24T00:42:51;19.30;99.90
34837;DHT22;21053;50.848;4.652;2023-07-24T00:45:24;19.30;99.90
34837;DHT22;21053;50.848;4.652;2023-07-24T00:47:52;19.40;99.90
34837;DHT22;21053;50.848;4.652;2023-07-24T00:50:43;19.50;99.90
34837;DHT22;21053;50.848;4.652;2023-07-24T00:53:13;19.50;99.90
34837;DHT22;21053;50.848;4.652;2023-07-24T00:55:42;19.60;99.90
34837;DHT22;21053;50.848;4.652;2023-07-24T00:58:11;19.60;99.90
34837;DHT22;21053;50.848;4.652;2023-07-24T01:00:40;19.70;99.90
34837;DHT22;21053;50.848;4.652;2023-07-24T01:03:08;19.60;99.90
34837;DHT22;21053;50.848;4.652;2023-07-24T01:05:40;19.50;99.90
34837;DHT22;21053;50.848;4.652;2023-07-24T01:08:07;19.50;99.90
34837;DHT22;21053;50.848;4.652;2023-07-24T01:10:36;19.60;99.90
34837;DHT22;21053;50.848;4.652;2023-07-24T01:15:36;19.60;99.90
34837;DHT22;21053;50.848;4.652;2023-07-24T01:18:08;19.60;99.90
34837;DHT22;21053;50.848;4.652;2023-07-24T01:20:43;19.70;99.90
34837;DHT22;21053;50.848;4.652;2023-07-24T01:26:19;19.60;99.90
34837;DHT22;21053;50.848;4.652;2023-07-24T01:28:52;19.70;99.90
34837;DHT22;21053;50.848;4.652;2023-07-24T01:31:19;19.70;99.90
34837;DHT22;21053;50.848;4.652;2023-07-24T01:33:47;19.50;99.90
34837;DHT22;21053;50.848;4.652;2023-07-24T01:36:16;19.50;99.90
34837;DHT22;21053;50.848;4.652;2023-07-24T01:38:44;19.50;99.90
34837;DHT22;21053;50.848;4.652;2023-07-24T01:41:14;19.60;99.90
34837;DHT22;21053;50.848;4.652;2023-07-24T01:43:43;19.50;99.90
34837;DHT22;21053;50.848;4.652;2023-07-24T01:46:09;19.50;99.90
34837;DHT22;21053;50.848;4.652;2023-07-24T01:48:37;19.60;99.90
34837;DHT22;21053;50.848;4.652;2023-07-24T01:51:05;19.70;99.90
34837;DHT22;21053;50.848;4.652;2023-07-24T01:53:33;19.60;99.90
34837;DHT22;21053;50.848;4.652;2023-07-24T01:56:02;19.60;99.90
34837;DHT22;21053;50.848;4.652;2023-07-24T01:58:29;19.60;99.90
34837;DHT22;21053;50.848;4.652;2023-07-24T02:00:58;19.50;99.90
34837;DHT22;21053;50.848;4.652;2023-07-24T02:03:24;19.50;99.90
34837;DHT22;21053;50.848;4.652;2023-07-24T02:05:51;19.50;99.90
34837;DHT22;21053;50.848;4.652;2023-07-24T02:08:18;19.50;99.90
34837;DHT22;21053;50.848;4.652;2023-07-24T02:10:49;19.40;99.90
34837;DHT22;21053;50.848;4.652;2023-07-24T02:13:18;19.40;99.90
34837;DHT22;21053;50.848;4.652;2023-07-24T02:15:47;19.40;99.90
34837;DHT22;21053;50.848;4.652;2023-07-24T02:18:19;19.30;99.90
34837;DHT22;21053;50.848;4.652;2023-07-24T02:20:53;19.30;99.90
34837;DHT22;21053;50.848;4.652;2023-07-24T02:23:18;19.30;99.90
34837;DHT22;21053;50.848;4.652;2023-07-24T02:25:51;19.40;99.90
34837;DHT22;21053;50.848;4.652;2023-07-24T02:28:20;19.30;99.90
34837;DHT22;21053;50.848;4.652;2023-07-24T02:30:47;19.30;99.90
34837;DHT22;21053;50.848;4.652;2023-07-24T02:33:16;19.30;99.90
34837;DHT22;21053;50.848;4.652;2023-07-24T02:35:44;19.40;99.90
34837;DHT22;21053;50.848;4.652;2023-07-24T02:38:11;19.30;99.90
34837;DHT22;21053;50.848;4.652;2023-07-24T02:40:41;19.30;99.90
34837;DHT22;21053;50.848;4.652;2023-07-24T02:43:08;19.30;99.90
34837;DHT22;21053;50.848;4.652;2023-07-24T02:45:37;19.40;99.90
34837;DHT22;21053;50.848;4.652;2023-07-24T02:48:09;19.40;99.90
34837;DHT22;21053;50.848;4.652;2023-07-24T02:50:37;19.40;99.90
34837;DHT22;21053;50.848;4.652;2023-07-24T02:53:04;19.30;99.90
34837;DHT22;21053;50.848;4.652;2023-07-24T02:55:33;19.30;99.90
34837;DHT22;21053;50.848;4.652;2023-07-24T02:58:02;19.40;99.90
34837;DHT22;21053;50.848;4.652;2023-07-24T03:00:31;19.50;99.90
34837;DHT22;21053;50.848;4.652;2023-07-24T03:02:58;19.50;99.90
34837;DHT22;21053;50.848;4.652;2023-07-24T03:05:34;19.50;99.90
34837;DHT22;21053;50.848;4.652;2023-07-24T03:08:03;19.50;99.90
34837;DHT22;21053;50.848;4.652;2023-07-24T03:10:32;19.50;99.90
34837;DHT22;21053;50.848;4.652;2023-07-24T03:13:00;19.40;99.90
34837;DHT22;21053;50.848;4.652;2023-07-24T03:15:29;19.30;99.90
34837;DHT22;21053;50.848;4.652;2023-07-24T03:17:58;19.30;99.90
34837;DHT22;21053;50.848;4.652;2023-07-24T03:20:27;19.40;99.90
34837;DHT22;21053;50.848;4.652;2023-07-24T03:22:56;19.40;99.90
34837;DHT22;21053;50.848;4.652;2023-07-24T03:25:25;19.40;99.90
34837;DHT22;21053;50.848;4.652;2023-07-24T03:27:53;19.40;99.90
34837;DHT22;21053;50.848;4.652;2023-07-24T03:30:22;19.40;99.90
34837;DHT22;21053;50.848;4.652;2023-07-24T03:32:51;19.40;99.90
34837;DHT22;21053;50.848;4.652;2023-07-24T03:35:19;19.50;99.90
34837;DHT22;21053;50.848;4.652;2023-07-24T03:37:44;19.40;99.90
34837;DHT22;21053;50.848;4.652;2023-07-24T03:40:16;19.50;99.90
34837;DHT22;21053;50.848;4.652;2023-07-24T03:42:45;19.40;99.90
34837;DHT22;21053;50.848;4.652;2023-07-24T03:45:12;19.40;99.90
34837;DHT22;21053;50.848;4.652;2023-07-24T03:47:37;19.20;99.90
34837;DHT22;21053;50.848;4.652;2023-07-24T03:50:06;18.90;99.90
34837;DHT22;21053;50.848;4.652;2023-07-24T03:52:33;18.50;99.90
34837;DHT22;21053;50.848;4.652;2023-07-24T03:55:03;18.50;99.90
34837;DHT22;21053;50.848;4.652;2023-07-24T03:57:30;18.50;99.90
34837;DHT22;21053;50.848;4.652;2023-07-24T03:59:57;18.70;99.90
34837;DHT22;21053;50.848;4.652;2023-07-24T04:02:24;18.50;99.90
34837;DHT22;21053;50.848;4.652;2023-07-24T04:04:52;18.40;99.90
34837;DHT22;21053;50.848;4.652;2023-07-24T04:07:19;18.40;99.90
34837;DHT22;21053;50.848;4.652;2023-07-24T04:09:46;18.40;99.90
34837;DHT22;21053;50.848;4.652;2023-07-24T04:12:15;18.50;99.90
34837;DHT22;21053;50.848;4.652;2023-07-24T04:14:43;18.50;99.90
34837;DHT22;21053;50.848;4.652;2023-07-24T04:17:11;18.60;99.90
34837;DHT22;21053;50.848;4.652;2023-07-24T04:19:38;18.70;99.90
34837;DHT22;21053;50.848;4.652;2023-07-24T04:22:03;18.60;99.90
34837;DHT22;21053;50.848;4.652;2023-07-24T04:24:29;18.60;99.90
34837;DHT22;21053;50.848;4.652;2023-07-24T04:26:56;18.60;99.90
34837;DHT22;21053;50.848;4.652;2023-07-24T04:29:24;18.60;99.90
34837;DHT22;21053;50.848;4.652;2023-07-24T04:31:52;18.60;99.90
34837;DHT22;21053;50.848;4.652;2023-07-24T04:34:21;18.60;99.90
34837;DHT22;21053;50.848;4.652;2023-07-24T04:36:50;18.70;99.90
34837;DHT22;21053;50.848;4.652;2023-07-24T04:39:17;18.80;99.90
34837;DHT22;21053;50.848;4.652;2023-07-24T04:41:45;18.70;99.90
34837;DHT22;21053;50.848;4.652;2023-07-24T04:44:14;18.70;99.90
34837;DHT22;21053;50.848;4.652;2023-07-24T04:46:40;18.80;99.90
34837;DHT22;21053;50.848;4.652;2023-07-24T04:49:05;18.80;99.90
34837;DHT22;21053;50.848;4.652;2023-07-24T04:51:34;18.80;99.90
34837;DHT22;21053;50.848;4.652;2023-07-24T04:54:00;18.80;99.90
34837;DHT22;21053;50.848;4.652;2023-07-24T04:56:27;18.70;99.90
34837;DHT22;21053;50.848;4.652;2023-07-24T04:58:53;18.80;99.90
34837;DHT22;21053;50.848;4.652;2023-07-24T05:01:19;18.80;99.90
34837;DHT22;21053;50.848;4.652;2023-07-24T05:03:44;18.90;99.90
34837;DHT22;21053;50.848;4.652;2023-07-24T05:06:10;18.90;99.90
34837;DHT22;21053;50.848;4.652;2023-07-24T05:08:39;18.90;99.90
34837;DHT22;21053;50.848;4.652;2023-07-24T05:11:08;18.90;99.90
34837;DHT22;21053;50.848;4.652;2023-07-24T05:13:36;19.00;99.90
34837;DHT22;21053;50.848;4.652;2023-07-24T05:16:05;19.00;99.90
34837;DHT22;21053;50.848;4.652;2023-07-24T05:18:33;19.10;99.90
34837;DHT22;21053;50.848;4.652;2023-07-24T05:21:10;19.10;99.90
34837;DHT22;21053;50.848;4.652;2023-07-24T05:23:37;19.10;99.90
34837;DHT22;21053;50.848;4.652;2023-07-24T05:26:10;19.10;99.90
34837;DHT22;21053;50.848;4.652;2023-07-24T05:28:38;19.10;99.90
34837;DHT22;21053;50.848;4.652;2023-07-24T05:31:06;19.20;99.90
34837;DHT22;21053;50.848;4.652;2023-07-24T05:33:36;19.20;99.90
34837;DHT22;21053;50.848;4.652;2023-07-24T05:36:03;19.20;99.90
34837;DHT22;21053;50.848;4.652;2023-07-24T05:38:32;19.20;99.90
34837;DHT22;21053;50.848;4.652;2023-07-24T05:41:03;19.00;99.90
34837;DHT22;21053;50.848;4.652;2023-07-24T05:43:32;18.90;99.90
34837;DHT22;21053;50.848;4.652;2023-07-24T05:46:06;18.90;99.90
34837;DHT22;21053;50.848;4.652;2023-07-24T05:48:33;18.80;99.90
34837;DHT22;21053;50.848;4.652;2023-07-24T05:51:00;18.90;99.90
34837;DHT22;21053;50.848;4.652;2023-07-24T05:53:25;18.90;99.90
34837;DHT22;21053;50.848;4.652;2023-07-24T05:56:01;19.00;99.90
34837;DHT22;21053;50.848;4.652;2023-07-24T05:58:27;18.90;99.90
34837;DHT22;21053;50.848;4.652;2023-07-24T06:00:53;19.00;99.90
34837;DHT22;21053;50.848;4.652;2023-07-24T06:03:21;19.10;99.90
34837;DHT22;21053;50.848;4.652;2023-07-24T06:05:54;19.10;99.90
34837;DHT22;21053;50.848;4.652;2023-07-24T06:08:23;19.00;99.90
34837;DHT22;21053;50.848;4.652;2023-07-24T06:17:33;19.20;99.90
34837;DHT22;21053;50.848;4.652;2023-07-24T06:20:22;19.20;99.90
34837;DHT22;21053;50.848;4.652;2023-07-24T06:22:49;19.30;99.90
34837;DHT22;21053;50.848;4.652;2023-07-24T06:25:23;19.40;99.90
34837;DHT22;21053;50.848;4.652;2023-07-24T06:27:51;19.50;99.90
34837;DHT22;21053;50.848;4.652;2023-07-24T06:30:23;19.60;99.90
34837;DHT22;21053;50.848;4.652;2023-07-24T06:32:52;19.60;99.90
34837;DHT22;21053;50.848;4.652;2023-07-24T06:37:44;19.60;99.90
34837;DHT22;21053;50.848;4.652;2023-07-24T06:40:17;19.60;99.90
34837;DHT22;21053;50.848;4.652;2023-07-24T06:42:48;19.60;99.90
34837;DHT22;21053;50.848;4.652;2023-07-24T06:45:16;19.70;99.90
34837;DHT22;21053;50.848;4.652;2023-07-24T06:47:45;19.60;99.90
34837;DHT22;21053;50.848;4.652;2023-07-24T06:50:13;19.60;99.90
34837;DHT22;21053;50.848;4.652;2023-07-24T06:52:42;19.50;99.90
34837;DHT22;21053;50.848;4.652;2023-07-24T06:55:08;19.70;99.90
34837;DHT22;21053;50.848;4.652;2023-07-24T06:57:34;19.70;99.90
34837;DHT22;21053;50.848;4.652;2023-07-24T07:00:01;19.80;99.90
34837;DHT22;21053;50.848;4.652;2023-07-24T07:02:29;19.80;99.90
34837;DHT22;21053;50.848;4.652;2023-07-24T07:04:58;19.80;99.90
34837;DHT22;21053;50.848;4.652;2023-07-24T07:07:26;19.80;99.90
34837;DHT22;21053;50.848;4.652;2023-07-24T07:09:55;20.00;99.90
34837;DHT22;21053;50.848;4.652;2023-07-24T07:12:25;20.00;99.90
34837;DHT22;21053;50.848;4.652;2023-07-24T07:14:51;20.20;99.90
34837;DHT22;21053;50.848;4.652;2023-07-24T07:17:18;20.30;99.90
34837;DHT22;21053;50.848;4.652;2023-07-24T07:19:45;20.40;99.90
34837;DHT22;21053;50.848;4.652;2023-07-24T07:22:14;20.30;99.90
34837;DHT22;21053;50.848;4.652;2023-07-24T07:24:40;20.20;99.90
34837;DHT22;21053;50.848;4.652;2023-07-24T07:27:07;20.10;99.90
34837;DHT22;21053;50.848;4.652;2023-07-24T07:29:36;20.00;99.90
34837;DHT22;21053;50.848;4.652;2023-07-24T07:32:02;19.90;99.90
34837;DHT22;21053;50.848;4.652;2023-07-24T07:34:31;19.90;99.90
34837;DHT22;21053;50.848;4.652;2023-07-24T07:36:57;19.80;99.90
34837;DHT22;21053;50.848;4.652;2023-07-24T07:39:23;19.90;99.90
34837;DHT22;21053;50.848;4.652;2023-07-24T07:41:52;20.00;99.90
34837;DHT22;21053;50.848;4.652;2023-07-24T07:44:21;20.00;99.90
34837;DHT22;21053;50.848;4.652;2023-07-24T07:46:47;20.10;99.90
34837;DHT22;21053;50.848;4.652;2023-07-24T07:49:14;20.10;99.90
34837;DHT22;21053;50.848;4.652;2023-07-24T07:51:43;20.00;99.90
34837;DHT22;21053;50.848;4.652;2023-07-24T07:54:22;19.80;99.90
34837;DHT22;21053;50.848;4.652;2023-07-24T07:56:50;19.70;99.90
34837;DHT22;21053;50.848;4.652;2023-07-24T07:59:16;19.40;99.90
34837;DHT22;21053;50.848;4.652;2023-07-24T08:01:44;19.50;99.90
34837;DHT22;21053;50.848;4.652;2023-07-24T08:04:14;19.30;99.90
34837;DHT22;21053;50.848;4.652;2023-07-24T08:06:41;19.30;99.90
34837;DHT22;21053;50.848;4.652;2023-07-24T08:09:08;19.30;99.90
34837;DHT22;21053;50.848;4.652;2023-07-24T08:11:37;19.40;99.90
34837;DHT22;21053;50.848;4.652;2023-07-24T08:14:06;19.50;99.90
34837;DHT22;21053;50.848;4.652;2023-07-24T08:16:31;19.20;99.90
34837;DHT22;21053;50.848;4.652;2023-07-24T08:19:00;19.30;99.90
34837;DHT22;21053;50.848;4.652;2023-07-24T08:21:29;19.50;99.90
34837;DHT22;21053;50.848;4.652;2023-07-24T08:23:58;19.60;99.90
34837;DHT22;21053;50.848;4.652;2023-07-24T08:26:31;19.40;99.90
34837;DHT22;21053;50.848;4.652;2023-07-24T08:29:00;19.40;99.90
34837;DHT22;21053;50.848;4.652;2023-07-24T08:31:25;19.30;99.90
34837;DHT22;21053;50.848;4.652;2023-07-24T08:33:54;19.40;99.90
34837;DHT22;21053;50.848;4.652;2023-07-24T08:36:23;19.60;99.90
34837;DHT22;21053;50.848;4.652;2023-07-24T08:38:52;19.80;99.90
34837;DHT22;21053;50.848;4.652;2023-07-24T08:41:18;20.00;99.90
34837;DHT22;21053;50.848;4.652;2023-07-24T08:43:44;19.80;99.90
34837;DHT22;21053;50.848;4.652;2023-07-24T08:46:10;20.00;99.90
34837;DHT22;21053;50.848;4.652;2023-07-24T08:48:39;20.10;99.90
34837;DHT22;21053;50.848;4.652;2023-07-24T08:51:11;20.20;99.90
34837;DHT22;21053;50.848;4.652;2023-07-24T08:53:42;20.00;99.90
34837;DHT22;21053;50.848;4.652;2023-07-24T08:56:11;19.80;99.90
34837;DHT22;21053;50.848;4.652;2023-07-24T08:58:40;19.80;99.90
34837;DHT22;21053;50.848;4.652;2023-07-24T09:01:12;19.80;99.90
34837;DHT22;21053;50.848;4.652;2023-07-24T09:03:43;19.80;99.90
34837;DHT22;21053;50.848;4.652;2023-07-24T09:06:10;19.80;99.90
34837;DHT22;21053;50.848;4.652;2023-07-24T09:08:41;19.50;99.90
34837;DHT22;21053;50.848;4.652;2023-07-24T09:11:10;19.30;99.90
34837;DHT22;21053;50.848;4.652;2023-07-24T09:13:42;19.10;99.90
34837;DHT22;21053;50.848;4.652;2023-07-24T09:16:08;19.00;99.90
34837;DHT22;21053;50.848;4.652;2023-07-24T09:18:43;19.10;99.90
34837;DHT22;21053;50.848;4.652;2023-07-24T09:21:10;19.00;99.90
34837;DHT22;21053;50.848;4.652;2023-07-24T09:23:41;19.00;99.90
34837;DHT22;21053;50.848;4.652;2023-07-24T09:26:10;19.00;99.90
34837;DHT22;21053;50.848;4.652;2023-07-24T09:28:51;19.10;99.90
34837;DHT22;21053;50.848;4.652;2023-07-24T09:31:19;18.90;99.90
34837;DHT22;21053;50.848;4.652;2023-07-24T09:33:44;18.80;99.90
34837;DHT22;21053;50.848;4.652;2023-07-24T09:36:13;18.80;99.90
34837;DHT22;21053;50.848;4.652;2023-07-24T09:38:42;18.80;99.90
34837;DHT22;21053;50.848;4.652;2023-07-24T09:41:08;18.80;99.90
34837;DHT22;21053;50.848;4.652;2023-07-24T09:43:35;18.80;99.90
34837;DHT22;21053;50.848;4.652;2023-07-24T09:46:07;18.70;99.90
34837;DHT22;21053;50.848;4.652;2023-07-24T09:48:35;18.70;99.90
34837;DHT22;21053;50.848;4.652;2023-07-24T09:51:13;18.50;99.90
34837;DHT22;21053;50.848;4.652;2023-07-24T09:53:43;18.40;99.90
34837;DHT22;21053;50.848;4.652;2023-07-24T09:56:14;18.50;99.90
34837;DHT22;21053;50.848;4.652;2023-07-24T09:58:41;18.40;99.90
34837;DHT22;21053;50.848;4.652;2023-07-24T10:01:11;18.60;99.90
34837;DHT22;21053;50.848;4.652;2023-07-24T10:03:46;18.70;99.90
34837;DHT22;21053;50.848;4.652;2023-07-24T10:06:15;18.90;99.90
34837;DHT22;21053;50.848;4.652;2023-07-24T10:08:42;19.10;99.90
34837;DHT22;21053;50.848;4.652;2023-07-24T10:11:13;19.30;99.90
34837;DHT22;21053;50.848;4.652;2023-07-24T10:13:40;19.60;99.90
34837;DHT22;21053;50.848;4.652;2023-07-24T10:16:07;20.00;99.90
34837;DHT22;21053;50.848;4.652;2023-07-24T10:18:35;20.40;99.90
34837;DHT22;21053;50.848;4.652;2023-07-24T10:21:10;20.60;99.90
34837;DHT22;21053;50.848;4.652;2023-07-24T10:23:43;20.50;99.90
34837;DHT22;21053;50.848;4.652;2023-07-24T10:26:10;20.50;99.90
34837;DHT22;21053;50.848;4.652;2023-07-24T10:28:39;20.50;99.90
34837;DHT22;21053;50.848;4.652;2023-07-24T10:31:20;20.70;99.90
34837;DHT22;21053;50.848;4.652;2023-07-24T10:33:48;20.80;99.90
34837;DHT22;21053;50.848;4.652;2023-07-24T10:36:18;21.00;99.90
34837;DHT22;21053;50.848;4.652;2023-07-24T10:38:54;20.60;99.90
34837;DHT22;21053;50.848;4.652;2023-07-24T10:41:20;20.40;99.90
34837;DHT22;21053;50.848;4.652;2023-07-24T10:43:52;20.60;99.90
34837;DHT22;21053;50.848;4.652;2023-07-24T10:46:38;20.70;99.90
34837;DHT22;21053;50.848;4.652;2023-07-24T10:49:08;20.80;99.90
34837;DHT22;21053;50.848;4.652;2023-07-24T10:51:37;20.80;99.90
34837;DHT22;21053;50.848;4.652;2023-07-24T10:54:06;20.80;99.90
34837;DHT22;21053;50.848;4.652;2023-07-24T10:56:32;20.70;99.90
34837;DHT22;21053;50.848;4.652;2023-07-24T10:59:07;20.70;99.90
34837;DHT22;21053;50.848;4.652;2023-07-24T11:01:34;20.70;99.90
34837;DHT22;21053;50.848;4.652;2023-07-24T11:04:01;20.70;99.90
34837;DHT22;21053;50.848;4.652;2023-07-24T11:06:30;20.70;99.90
34837;DHT22;21053;50.848;4.652;2023-07-24T11:08:58;20.60;99.90
34837;DHT22;21053;50.848;4.652;2023-07-24T11:11:32;20.60;99.90
34837;DHT22;21053;50.848;4.652;2023-07-24T11:14:02;20.60;99.90
34837;DHT22;21053;50.848;4.652;2023-07-24T11:16:29;20.60;99.90
34837;DHT22;21053;50.848;4.652;2023-07-24T11:19:03;20.60;99.90
34837;DHT22;21053;50.848;4.652;2023-07-24T11:21:30;20.60;99.90
34837;DHT22;21053;50.848;4.652;2023-07-24T11:23:56;20.70;99.90
34837;DHT22;21053;50.848;4.652;2023-07-24T11:26:27;20.70;99.90
34837;DHT22;21053;50.848;4.652;2023-07-24T11:28:56;20.60;99.90
34837;DHT22;21053;50.848;4.652;2023-07-24T11:31:25;20.40;99.90
34837;DHT22;21053;50.848;4.652;2023-07-24T11:33:52;20.30;99.90
34837;DHT22;21053;50.848;4.652;2023-07-24T11:36:20;20.30;99.90
34837;DHT22;21053;50.848;4.652;2023-07-24T11:38:49;20.10;99.90
34837;DHT22;21053;50.848;4.652;2023-07-24T11:41:17;19.90;99.90
34837;DHT22;21053;50.848;4.652;2023-07-24T11:43:48;19.80;99.90
34837;DHT22;21053;50.848;4.652;2023-07-24T11:46:27;19.80;99.90
34837;DHT22;21053;50.848;4.652;2023-07-24T11:48:53;19.80;99.90
34837;DHT22;21053;50.848;4.652;2023-07-24T11:51:25;19.80;99.90
34837;DHT22;21053;50.848;4.652;2023-07-24T11:54:05;19.80;99.90
34837;DHT22;21053;50.848;4.652;2023-07-24T11:56:32;19.90;99.90
34837;DHT22;21053;50.848;4.652;2023-07-24T11:59:09;20.00;99.90
34837;DHT22;21053;50.848;4.652;2023-07-24T12:01:35;20.00;99.90
34837;DHT22;21053;50.848;4.652;2023-07-24T12:04:00;20.40;99.90
34837;DHT22;21053;50.848;4.652;2023-07-24T12:06:26;20.70;99.90
34837;DHT22;21053;50.848;4.652;2023-07-24T12:09:00;21.20;99.90
34837;DHT22;21053;50.848;4.652;2023-07-24T12:11:30;21.60;99.90
34837;DHT22;21053;50.848;4.652;2023-07-24T12:14:00;21.90;99.90
34837;DHT22;21053;50.848;4.652;2023-07-24T12:16:29;21.90;99.90
34837;DHT22;21053;50.848;4.652;2023-07-24T12:18:56;21.90;99.90
34837;DHT22;21053;50.848;4.652;2023-07-24T12:21:28;22.00;99.90
34837;DHT22;21053;50.848;4.652;2023-07-24T12:23:55;22.30;99.90
34837;DHT22;21053;50.848;4.652;2023-07-24T12:26:24;22.40;99.90
34837;DHT22;21053;50.848;4.652;2023-07-24T12:31:57;22.70;99.90
34837;DHT22;21053;50.848;4.652;2023-07-24T12:34:25;22.70;99.90
34837;DHT22;21053;50.848;4.652;2023-07-24T12:36:53;22.50;99.90
34837;DHT22;21053;50.848;4.652;2023-07-24T12:39:22;22.70;99.90
34837;DHT22;21053;50.848;4.652;2023-07-24T12:41:48;23.10;99.90
34837;DHT22;21053;50.848;4.652;2023-07-24T12:44:17;23.20;99.90
34837;DHT22;21053;50.848;4.652;2023-07-24T12:46:45;23.10;99.90
34837;DHT22;21053;50.848;4.652;2023-07-24T12:49:12;22.90;99.90
34837;DHT22;21053;50.848;4.652;2023-07-24T12:51:39;22.60;99.90
34837;DHT22;21053;50.848;4.652;2023-07-24T12:54:08;22.30;99.90
34837;DHT22;21053;50.848;4.652;2023-07-24T12:56:33;22.10;99.90
34837;DHT22;21053;50.848;4.652;2023-07-24T12:59:02;21.90;99.90
34837;DHT22;21053;50.848;4.652;2023-07-24T13:01:29;21.90;99.90
34837;DHT22;21053;50.848;4.652;2023-07-24T13:03:55;21.90;99.90
34837;DHT22;21053;50.848;4.652;2023-07-24T13:06:23;21.90;99.90
34837;DHT22;21053;50.848;4.652;2023-07-24T13:08:49;22.00;99.90
34837;DHT22;21053;50.848;4.652;2023-07-24T13:11:18;22.30;99.90
34837;DHT22;21053;50.848;4.652;2023-07-24T13:13:44;22.60;99.90
34837;DHT22;21053;50.848;4.652;2023-07-24T13:16:09;22.90;99.90
34837;DHT22;21053;50.848;4.652;2023-07-24T13:18:35;23.30;99.90
34837;DHT22;21053;50.848;4.652;2023-07-24T13:21:01;23.40;99.90
34837;DHT22;21053;50.848;4.652;2023-07-24T13:23:26;23.40;99.90
34837;DHT22;21053;50.848;4.652;2023-07-24T13:25:53;23.00;99.90
34837;DHT22;21053;50.848;4.652;2023-07-24T13:28:22;22.80;99.90
34837;DHT22;21053;50.848;4.652;2023-07-24T13:30:49;22.40;99.90
34837;DHT22;21053;50.848;4.652;2023-07-24T13:33:48;22.10;99.90
34837;DHT22;21053;50.848;4.652;2023-07-24T13:36:15;21.90;99.90
34837;DHT22;21053;50.848;4.652;2023-07-24T13:38:51;21.80;99.90
34837;DHT22;21053;50.848;4.652;2023-07-24T13:41:17;21.70;99.90
34837;DHT22;21053;50.848;4.652;2023-07-24T13:43:47;21.70;99.90
34837;DHT22;21053;50.848;4.652;2023-07-24T13:46:16;21.60;99.90
34837;DHT22;21053;50.848;4.652;2023-07-24T13:48:43;21.80;99.90
34837;DHT22;21053;50.848;4.652;2023-07-24T13:51:09;21.80;99.90
34837;DHT22;21053;50.848;4.652;2023-07-24T13:53:38;22.00;99.90
34837;DHT22;21053;50.848;4.652;2023-07-24T13:56:05;22.10;99.90
34837;DHT22;21053;50.848;4.652;2023-07-24T13:58:36;22.30;99.90
34837;DHT22;21053;50.848;4.652;2023-07-24T14:01:02;22.20;99.90
34837;DHT22;21053;50.848;4.652;2023-07-24T14:03:31;22.00;99.90
34837;DHT22;21053;50.848;4.652;2023-07-24T14:05:57;21.90;99.90
34837;DHT22;21053;50.848;4.652;2023-07-24T14:08:23;21.90;99.90
34837;DHT22;21053;50.848;4.652;2023-07-24T14:10:49;21.90;99.90
34837;DHT22;21053;50.848;4.652;2023-07-24T14:13:14;22.00;99.90
34837;DHT22;21053;50.848;4.652;2023-07-24T14:15:40;22.00;99.90
34837;DHT22;21053;50.848;4.652;2023-07-24T14:18:06;22.00;99.90
34837;DHT22;21053;50.848;4.652;2023-07-24T14:20:31;21.70;99.90
34837;DHT22;21053;50.848;4.652;2023-07-24T14:23:00;21.60;99.90
34837;DHT22;21053;50.848;4.652;2023-07-24T14:25:29;21.60;99.90
34837;DHT22;21053;50.848;4.652;2023-07-24T14:27:58;21.70;99.90
34837;DHT22;21053;50.848;4.652;2023-07-24T14:30:28;21.90;99.90
34837;DHT22;21053;50.848;4.652;2023-07-24T14:36:12;22.30;99.90
34837;DHT22;21053;50.848;4.652;2023-07-24T14:38:38;22.10;99.90
34837;DHT22;21053;50.848;4.652;2023-07-24T14:41:16;22.00;99.90
34837;DHT22;21053;50.848;4.652;2023-07-24T14:43:46;22.00;99.90
34837;DHT22;21053;50.848;4.652;2023-07-24T14:46:11;22.20;99.90
34837;DHT22;21053;50.848;4.652;2023-07-24T14:48:40;22.40;99.90
34837;DHT22;21053;50.848;4.652;2023-07-24T14:51:07;22.20;99.90
34837;DHT22;21053;50.848;4.652;2023-07-24T14:53:36;22.30;99.90
34837;DHT22;21053;50.848;4.652;2023-07-24T14:56:07;22.50;99.90
34837;DHT22;21053;50.848;4.652;2023-07-24T14:58:36;22.50;99.90
34837;DHT22;21053;50.848;4.652;2023-07-24T15:01:05;22.20;99.90
34837;DHT22;21053;50.848;4.652;2023-07-24T15:03:30;22.30;99.90
34837;DHT22;21053;50.848;4.652;2023-07-24T15:05:59;22.50;99.90
34837;DHT22;21053;50.848;4.652;2023-07-24T15:08:35;22.70;99.90
34837;DHT22;21053;50.848;4.652;2023-07-24T15:11:03;22.70;99.90
34837;DHT22;21053;50.848;4.652;2023-07-24T15:13:31;22.30;99.90
34837;DHT22;21053;50.848;4.652;2023-07-24T15:15:58;22.00;99.90
34837;DHT22;21053;50.848;4.652;2023-07-24T15:18:30;21.90;99.90
34837;DHT22;21053;50.848;4.652;2023-07-24T15:20:59;21.70;99.90
34837;DHT22;21053;50.848;4.652;2023-07-24T15:23:28;21.40;99.90
34837;DHT22;21053;50.848;4.652;2023-07-24T15:25:57;21.30;99.90
34837;DHT22;21053;50.848;4.652;2023-07-24T15:28:23;21.00;99.90
34837;DHT22;21053;50.848;4.652;2023-07-24T15:30:52;20.70;99.90
34837;DHT22;21053;50.848;4.652;2023-07-24T15:33:21;20.40;99.90
34837;DHT22;21053;50.848;4.652;2023-07-24T15:35:49;20.30;99.90
34837;DHT22;21053;50.848;4.652;2023-07-24T15:38:16;20.00;99.90
34837;DHT22;21053;50.848;4.652;2023-07-24T15:40:42;19.70;99.90
34837;DHT22;21053;50.848;4.652;2023-07-24T15:43:12;19.50;99.90
34837;DHT22;21053;50.848;4.652;2023-07-24T15:45:41;19.30;99.90
34837;DHT22;21053;50.848;4.652;2023-07-24T15:48:06;18.40;99.90
34837;DHT22;21053;50.848;4.652;2023-07-24T15:50:35;18.10;99.90
34837;DHT22;21053;50.848;4.652;2023-07-24T15:53:04;18.10;99.90
34837;DHT22;21053;50.848;4.652;2023-07-24T15:55:31;18.20;99.90
34837;DHT22;21053;50.848;4.652;2023-07-24T15:57:58;18.30;99.90
34837;DHT22;21053;50.848;4.652;2023-07-24T16:00:27;18.30;99.90